createdAt,value
2022-09-26T14:06:11.965Z,5292.00
2022-09-26T14:07:11.816Z,5292.00
2022-09-26T14:08:11.790Z,5140.00
2022-09-26T14:09:11.794Z,5112.00
2022-09-26T14:10:11.797Z,4964.00
2022-09-26T14:11:11.765Z,4764.00
2022-09-26T14:12:11.745Z,4992.00
2022-09-26T14:13:11.747Z,5112.00
2022-09-26T14:14:11.750Z,5208.00
2022-09-26T14:15:11.719Z,5056.00
2022-09-26T14:16:11.806Z,5020.00
2022-09-26T14:17:14.504Z,4904.00
2022-09-26T14:18:11.692Z,4788.00
2022-09-26T14:19:11.684Z,4624.00
2022-09-26T14:20:11.663Z,4492.00
2022-09-26T14:21:11.670Z,4292.00
2022-09-26T14:22:11.725Z,4208.00
2022-09-26T14:23:11.627Z,4096.00
2022-09-26T14:24:11.627Z,3892.00
2022-09-26T14:25:11.604Z,3628.00
2022-09-26T14:26:11.600Z,3660.00
2022-09-26T14:27:11.598Z,3744.00
2022-09-26T14:28:11.603Z,3896.00
2022-09-26T14:29:11.620Z,4040.00
2022-09-26T14:30:11.767Z,3988.00
2022-09-26T14:31:11.682Z,3812.00
2022-09-26T14:32:11.548Z,3820.00
2022-09-26T14:33:11.533Z,4028.00
2022-09-26T14:34:11.708Z,4376.00
2022-09-26T14:35:11.515Z,4556.00
2022-09-26T14:36:11.511Z,4984.00
2022-09-26T14:37:11.518Z,5188.00
2022-09-26T14:38:11.483Z,4984.00
2022-09-26T14:39:14.194Z,4692.00
2022-09-26T14:40:12.486Z,4440.00
2022-09-26T14:41:11.438Z,4220.00
2022-09-26T14:42:11.433Z,4092.00
2022-09-26T14:43:11.415Z,3824.00
2022-09-26T14:44:11.433Z,3652.00
2022-09-26T14:45:11.396Z,3556.00
2022-09-26T14:46:11.526Z,3424.00
2022-09-26T14:47:11.389Z,3328.00
2022-09-26T14:48:11.368Z,3520.00
2022-09-26T14:49:11.382Z,3532.00
2022-09-26T14:50:11.337Z,3484.00
2022-09-26T14:51:11.324Z,3584.00
2022-09-26T14:52:11.505Z,3460.00
2022-09-26T14:53:11.320Z,3408.00
2022-09-26T14:54:11.329Z,3512.00
2022-09-26T14:55:11.304Z,3680.00
2022-09-26T14:56:11.330Z,3828.00
2022-09-26T14:57:11.265Z,3856.00
2022-09-26T14:58:11.271Z,3912.00
2022-09-26T14:59:11.419Z,3984.00
2022-09-26T15:00:11.234Z,4048.00
2022-09-26T15:01:11.273Z,4032.00
2022-09-26T15:02:11.359Z,4008.00
2022-09-26T15:03:11.288Z,4088.00
2022-09-26T15:04:11.410Z,4260.00
2022-09-26T15:05:11.188Z,4460.00
2022-09-26T15:06:11.166Z,4640.00
2022-09-26T15:07:11.470Z,4708.00
2022-09-26T15:08:12.019Z,4728.00
2022-09-26T15:09:11.133Z,4680.00
2022-09-26T15:10:11.130Z,4688.00
2022-09-26T15:11:11.111Z,4776.00
2022-09-26T15:12:11.106Z,5072.00
2022-09-26T15:13:11.092Z,5544.00
2022-09-26T15:14:11.081Z,5840.00
2022-09-26T15:15:11.074Z,5736.00
2022-09-26T15:16:11.140Z,5392.00
2022-09-26T15:17:11.067Z,5172.00
2022-09-26T15:18:11.043Z,5008.00
2022-09-26T15:19:11.048Z,4808.00
2022-09-26T15:20:11.021Z,4528.00
2022-09-26T15:21:11.023Z,4204.00
2022-09-26T15:22:11.012Z,3864.00
2022-09-26T15:23:10.989Z,3560.00
2022-09-26T15:24:11.010Z,3184.00
2022-09-26T15:25:10.981Z,2792.00
2022-09-26T15:26:10.957Z,2492.00
2022-09-26T15:27:10.950Z,2288.00
2022-09-26T15:28:10.949Z,2132.00
2022-09-26T15:29:10.921Z,2000.00
2022-09-26T15:30:10.926Z,1892.00
2022-09-26T15:31:11.140Z,1824.00
2022-09-26T15:32:10.919Z,1824.00
2022-09-26T15:33:15.631Z,1848.00
2022-09-26T15:34:11.931Z,1824.00
2022-09-26T15:35:10.889Z,1748.00
2022-09-26T15:36:10.863Z,1620.00
2022-09-26T15:37:10.880Z,1488.00
2022-09-26T15:38:10.829Z,1344.00
2022-09-26T15:39:10.881Z,1232.00
2022-09-26T15:40:10.812Z,1160.00
2022-09-26T15:41:10.809Z,1096.00
2022-09-26T15:42:10.791Z,1124.00
2022-09-26T15:43:10.796Z,1156.00
2022-09-26T15:44:10.762Z,1184.00
2022-09-26T15:45:10.749Z,1052.00
2022-09-26T15:46:10.758Z,900.00
2022-09-26T15:47:10.736Z,868.00
2022-09-26T15:48:10.723Z,876.00
2022-09-26T15:49:10.717Z,876.00
2022-09-26T15:50:10.679Z,948.00
2022-09-26T15:51:10.695Z,1048.00
2022-09-26T15:52:10.661Z,1136.00
2022-09-26T15:53:10.662Z,1068.00
2022-09-26T15:54:10.650Z,924.00
2022-09-26T15:55:10.648Z,844.00
2022-09-26T15:56:10.620Z,836.00
2022-09-26T15:57:10.896Z,788.00
2022-09-26T15:58:10.614Z,684.00
2022-09-26T15:59:10.590Z,596.00
2022-09-26T16:00:10.600Z,604.00
2022-09-26T16:01:10.623Z,652.00
2022-09-26T16:02:10.559Z,752.00
2022-09-26T16:03:10.644Z,928.00
2022-09-26T16:04:10.539Z,1076.00
2022-09-26T16:05:12.848Z,1116.00
2022-09-26T16:06:10.534Z,1120.00
2022-09-26T16:07:10.533Z,1084.00
2022-09-26T16:08:10.509Z,1032.00
2022-09-26T16:09:10.509Z,976.00
2022-09-26T16:10:10.874Z,936.00
2022-09-26T16:11:10.463Z,912.00
2022-09-26T16:12:14.394Z,904.00
2022-09-26T16:13:10.475Z,888.00
2022-09-26T16:14:10.460Z,880.00
2022-09-26T16:15:10.422Z,868.00
2022-09-26T16:16:10.560Z,876.00
2022-09-26T16:17:10.414Z,904.00
2022-09-26T16:18:10.420Z,932.00
2022-09-26T16:19:10.580Z,992.00
2022-09-26T16:20:10.376Z,1048.00
2022-09-26T16:21:10.364Z,1012.00
2022-09-26T16:22:10.359Z,892.00
2022-09-26T16:23:10.330Z,796.00
2022-09-26T16:24:10.346Z,732.00
2022-09-26T16:25:10.328Z,692.00
2022-09-26T16:26:10.310Z,640.00
2022-09-26T16:27:10.302Z,592.00
2022-09-26T16:28:10.296Z,536.00
2022-09-26T16:29:10.272Z,484.00
2022-09-26T16:30:10.273Z,440.00
2022-09-26T16:31:10.547Z,396.00
2022-09-26T16:32:10.452Z,360.00
2022-09-26T16:33:10.226Z,344.00
2022-09-26T16:34:10.227Z,332.00
2022-09-26T16:35:10.208Z,316.00
2022-09-26T16:36:10.215Z,300.00
2022-09-26T16:37:10.208Z,292.00
2022-09-26T16:38:10.202Z,280.00
2022-09-26T16:39:10.192Z,268.00
2022-09-26T16:40:10.184Z,264.00
2022-09-26T16:41:10.191Z,252.00
2022-09-26T16:42:10.181Z,228.00
2022-09-26T16:43:10.136Z,196.00
2022-09-26T16:44:10.183Z,176.00
2022-09-26T16:45:10.105Z,172.00
2022-09-26T16:46:10.181Z,160.00
2022-09-26T16:47:10.107Z,148.00
2022-09-26T16:48:10.088Z,140.00
2022-09-26T16:49:10.134Z,140.00
2022-09-26T16:50:10.055Z,136.00
2022-09-26T16:51:10.081Z,124.00
2022-09-26T16:52:10.041Z,112.00
2022-09-26T16:53:10.027Z,104.00
2022-09-26T16:54:10.074Z,92.00
2022-09-26T16:55:10.002Z,84.00
2022-09-26T16:56:09.992Z,80.00
2022-09-26T16:57:09.988Z,84.00
2022-09-26T16:58:09.966Z,84.00
2022-09-26T16:59:09.960Z,84.00
2022-09-26T17:00:10.043Z,80.00
2022-09-26T17:01:10.042Z,80.00
2022-09-26T17:02:09.948Z,76.00
2022-09-26T17:03:09.946Z,80.00
2022-09-26T17:04:09.974Z,76.00
2022-09-26T17:05:09.878Z,72.00
2022-09-26T17:06:09.885Z,64.00
2022-09-26T17:07:10.025Z,56.00
2022-09-26T17:08:09.864Z,52.00
2022-09-26T17:09:09.930Z,52.00
2022-09-26T17:10:09.862Z,52.00
2022-09-26T17:11:09.827Z,48.00
2022-09-26T17:12:09.885Z,40.00
2022-09-26T17:13:09.813Z,40.00
2022-09-26T17:14:09.911Z,36.00
2022-09-26T17:15:09.788Z,32.00
2022-09-26T17:16:09.941Z,32.00
2022-09-26T17:17:09.759Z,28.00
2022-09-26T17:18:09.771Z,28.00
2022-09-26T17:19:09.757Z,24.00
2022-09-26T17:20:09.845Z,20.00
2022-09-26T17:21:09.727Z,16.00
2022-09-26T17:22:09.737Z,12.00
2022-09-26T17:23:34.867Z,16.00
2022-09-26T17:24:10.696Z,12.00
2022-09-26T17:25:09.684Z,12.00
2022-09-26T17:26:09.700Z,12.00
2022-09-26T17:27:09.711Z,8.00
2022-09-26T17:28:09.668Z,8.00
2022-09-26T17:29:09.648Z,8.00
2022-09-26T17:30:10.596Z,8.00
2022-09-26T17:31:09.695Z,8.00
2022-09-26T17:32:09.879Z,4.00
2022-09-26T17:33:09.713Z,4.00
2022-09-26T17:34:09.704Z,8.00
2022-09-26T17:35:09.634Z,4.00
2022-09-26T17:36:09.615Z,4.00
2022-09-26T17:37:09.693Z,4.00
2022-09-26T17:38:10.264Z,0.00
2022-09-26T17:39:09.587Z,4.00
2022-09-26T17:40:09.536Z,4.00
2022-09-26T17:41:09.521Z,0.00
2022-09-26T17:42:09.966Z,0.00
2022-09-26T17:43:09.780Z,0.00
2022-09-26T17:44:09.474Z,0.00
2022-09-26T17:45:09.476Z,0.00
2022-09-26T17:46:14.739Z,0.00
2022-09-26T17:47:10.673Z,0.00
2022-09-26T17:48:09.474Z,0.00
2022-09-26T17:49:09.482Z,0.00
2022-09-26T17:50:09.403Z,0.00
2022-09-26T17:51:09.401Z,0.00
2022-09-26T17:52:09.461Z,0.00
2022-09-26T17:53:09.381Z,0.00
2022-09-26T17:54:09.380Z,0.00
2022-09-26T17:55:09.355Z,0.00
2022-09-26T17:56:09.403Z,0.00
2022-09-26T17:57:09.349Z,0.00
2022-09-26T17:58:09.335Z,0.00
2022-09-26T17:59:09.444Z,0.00
2022-09-26T18:00:09.318Z,0.00
2022-09-26T18:01:09.388Z,0.00
2022-09-26T18:02:09.326Z,0.00
2022-09-26T18:03:09.361Z,0.00
2022-09-26T18:04:09.422Z,0.00
2022-09-26T18:05:09.459Z,0.00
2022-09-26T18:06:09.245Z,0.00
2022-09-26T18:07:09.224Z,0.00
2022-09-26T18:08:09.226Z,0.00
2022-09-26T18:09:09.261Z,0.00
2022-09-26T18:10:09.201Z,0.00
2022-09-26T18:11:09.174Z,0.00
2022-09-26T18:12:09.237Z,0.00
2022-09-26T18:13:13.316Z,0.00
2022-09-26T18:14:10.226Z,0.00
2022-09-26T18:15:09.154Z,0.00
2022-09-26T18:16:09.206Z,0.00
2022-09-26T18:17:09.110Z,0.00
2022-09-26T18:18:09.113Z,0.00
2022-09-26T18:19:09.132Z,0.00
2022-09-26T18:20:10.055Z,0.00
2022-09-26T18:21:09.086Z,0.00
2022-09-26T18:22:09.072Z,0.00
2022-09-26T18:23:09.175Z,0.00
2022-09-26T18:24:09.059Z,0.00
2022-09-26T18:25:09.047Z,0.00
2022-09-26T18:26:09.308Z,0.00
2022-09-26T18:27:09.019Z,0.00
2022-09-26T18:28:09.009Z,0.00
2022-09-26T18:29:09.209Z,0.00
2022-09-26T18:30:09.000Z,0.00
2022-09-26T18:31:09.186Z,0.00
2022-09-26T18:32:08.968Z,0.00
2022-09-26T18:33:09.115Z,0.00
2022-09-26T18:34:09.033Z,0.00
2022-09-26T18:35:08.938Z,0.00
2022-09-26T18:36:08.951Z,0.00
2022-09-26T18:37:09.216Z,0.00
2022-09-26T18:38:08.907Z,0.00
2022-09-26T18:39:09.000Z,0.00
2022-09-26T18:40:08.882Z,0.00
2022-09-26T18:41:08.989Z,0.00
2022-09-26T18:42:08.850Z,0.00
2022-09-26T18:43:08.877Z,0.00
2022-09-26T18:44:08.851Z,0.00
2022-09-26T18:45:08.940Z,0.00
2022-09-26T18:46:08.848Z,0.00
2022-09-26T18:47:09.794Z,0.00
2022-09-26T18:48:08.953Z,0.00
2022-09-26T18:49:08.832Z,0.00
2022-09-26T18:50:08.788Z,0.00
2022-09-26T18:51:08.769Z,0.00
2022-09-26T18:52:08.761Z,0.00
2022-09-26T18:53:09.461Z,0.00
2022-09-26T18:54:11.519Z,0.00
2022-09-26T18:55:08.739Z,0.00
2022-09-26T18:56:08.766Z,0.00
2022-09-26T18:57:08.758Z,0.00
2022-09-26T18:58:08.696Z,0.00
2022-09-26T18:59:08.728Z,0.00
2022-09-26T19:00:08.684Z,0.00
2022-09-26T19:01:08.898Z,0.00
2022-09-26T19:02:08.801Z,0.00
2022-09-26T19:03:08.754Z,0.00
2022-09-26T19:04:08.815Z,0.00
2022-09-26T19:05:08.609Z,0.00
2022-09-26T19:06:08.788Z,0.00
2022-09-26T19:07:08.576Z,0.00
2022-09-26T19:08:08.568Z,0.00
2022-09-26T19:09:08.588Z,0.00
2022-09-26T19:10:08.551Z,0.00
2022-09-26T19:11:08.561Z,0.00
2022-09-26T19:12:08.543Z,0.00
2022-09-26T19:13:08.529Z,0.00
2022-09-26T19:14:08.539Z,0.00
2022-09-26T19:15:08.492Z,0.00
2022-09-26T19:16:08.758Z,0.00
2022-09-26T19:17:08.490Z,0.00
2022-09-26T19:18:08.464Z,0.00
2022-09-26T19:19:08.450Z,0.00
2022-09-26T19:20:08.448Z,0.00
2022-09-26T19:21:08.429Z,0.00
2022-09-26T19:22:08.418Z,0.00
2022-09-26T19:23:08.400Z,0.00
2022-09-26T19:24:08.439Z,0.00
2022-09-26T19:25:08.397Z,0.00
2022-09-26T19:26:08.385Z,0.00
2022-09-26T19:27:08.394Z,0.00
2022-09-26T19:28:08.392Z,0.00
2022-09-26T19:29:11.938Z,0.00
2022-09-26T19:30:08.323Z,0.00
2022-09-26T19:31:08.374Z,0.00
2022-09-26T19:32:08.327Z,0.00
2022-09-26T19:33:08.308Z,0.00
2022-09-26T19:34:08.306Z,0.00
2022-09-26T19:35:08.280Z,0.00
2022-09-26T19:36:08.319Z,0.00
2022-09-26T19:37:08.261Z,0.00
2022-09-26T19:38:08.257Z,0.00
2022-09-26T19:39:08.248Z,0.00
2022-09-26T19:40:08.225Z,0.00
2022-09-26T19:41:08.260Z,0.00
2022-09-26T19:42:08.227Z,0.00
2022-09-26T19:43:08.189Z,0.00
2022-09-26T19:44:08.222Z,0.00
2022-09-26T19:45:08.180Z,0.00
2022-09-26T19:46:08.229Z,0.00
2022-09-26T19:47:08.247Z,0.00
2022-09-26T19:48:08.152Z,0.00
2022-09-26T19:49:09.222Z,0.00
2022-09-26T19:50:08.135Z,0.00
2022-09-26T19:51:08.122Z,0.00
2022-09-26T19:52:08.108Z,0.00
2022-09-26T19:53:08.094Z,0.00
2022-09-26T19:54:08.111Z,0.00
2022-09-26T19:55:08.071Z,0.00
2022-09-26T19:56:08.074Z,0.00
2022-09-26T19:57:08.053Z,0.00
2022-09-26T19:58:08.029Z,0.00
2022-09-26T19:59:08.043Z,0.00
2022-09-26T20:00:08.018Z,0.00
2022-09-26T20:01:08.048Z,0.00
2022-09-26T20:02:08.042Z,0.00
2022-09-26T20:03:08.063Z,0.00
2022-09-26T20:04:08.030Z,0.00
2022-09-26T20:05:07.962Z,0.00
2022-09-26T20:06:07.947Z,0.00
2022-09-26T20:07:07.935Z,0.00
2022-09-26T20:08:07.931Z,0.00
2022-09-26T20:09:07.912Z,0.00
2022-09-26T20:10:07.908Z,0.00
2022-09-26T20:11:07.894Z,0.00
2022-09-26T20:12:07.885Z,0.00
2022-09-26T20:13:07.869Z,0.00
2022-09-26T20:14:07.933Z,0.00
2022-09-26T20:15:07.852Z,0.00
2022-09-26T20:16:07.838Z,0.00
2022-09-26T20:17:07.865Z,0.00
2022-09-26T20:18:08.351Z,0.00
2022-09-26T20:19:07.827Z,0.00
2022-09-26T20:20:07.823Z,0.00
2022-09-26T20:21:07.788Z,0.00
2022-09-26T20:22:07.779Z,0.00
2022-09-26T20:23:07.760Z,0.00
2022-09-26T20:24:07.817Z,0.00
2022-09-26T20:25:07.747Z,0.00
2022-09-26T20:26:07.748Z,0.00
2022-09-26T20:27:07.726Z,0.00
2022-09-26T20:28:07.712Z,0.00
2022-09-26T20:29:07.687Z,0.00
2022-09-26T20:30:07.683Z,0.00
2022-09-26T20:31:07.712Z,0.00
2022-09-26T20:32:09.329Z,0.00
2022-09-26T20:33:07.662Z,0.00
2022-09-26T20:34:07.703Z,0.00
2022-09-26T20:35:07.654Z,0.00
2022-09-26T20:36:07.610Z,0.00
2022-09-26T20:37:07.631Z,0.00
2022-09-26T20:38:07.607Z,0.00
2022-09-26T20:39:07.650Z,0.00
2022-09-26T20:40:07.581Z,0.00
2022-09-26T20:41:12.696Z,0.00
2022-09-26T20:42:08.571Z,0.00
2022-09-26T20:43:07.548Z,0.00
2022-09-26T20:44:07.529Z,0.00
2022-09-26T20:45:07.535Z,0.00
2022-09-26T20:46:07.569Z,0.00
2022-09-26T20:47:07.498Z,0.00
2022-09-26T20:48:07.479Z,0.00
2022-09-26T20:49:07.547Z,0.00
2022-09-26T20:50:07.480Z,0.00
2022-09-26T20:51:07.466Z,0.00
2022-09-26T20:52:07.444Z,0.00
2022-09-26T20:53:07.445Z,0.00
2022-09-26T20:54:07.462Z,0.00
2022-09-26T20:55:07.438Z,0.00
2022-09-26T20:56:07.406Z,0.00
2022-09-26T20:57:07.399Z,0.00
2022-09-26T20:58:07.402Z,0.00
2022-09-26T20:59:07.388Z,0.00
2022-09-26T21:00:07.428Z,0.00
2022-09-26T21:01:07.413Z,0.00
2022-09-26T21:02:07.402Z,0.00
2022-09-26T21:03:07.359Z,0.00
2022-09-26T21:04:07.330Z,0.00
2022-09-26T21:05:07.318Z,0.00
2022-09-26T21:06:07.309Z,0.00
2022-09-26T21:07:07.298Z,0.00
2022-09-26T21:08:07.307Z,0.00
2022-09-26T21:09:07.281Z,0.00
2022-09-26T21:10:07.258Z,0.00
2022-09-26T21:11:07.253Z,0.00
2022-09-26T21:12:07.240Z,0.00
2022-09-26T21:13:07.236Z,0.00
2022-09-26T21:14:07.238Z,0.00
2022-09-26T21:15:07.209Z,0.00
2022-09-26T21:16:07.204Z,0.00
2022-09-26T21:17:07.226Z,0.00
2022-09-26T21:18:07.166Z,0.00
2022-09-26T21:19:07.162Z,0.00
2022-09-26T21:20:07.380Z,0.00
2022-09-26T21:21:07.145Z,0.00
2022-09-26T21:22:07.141Z,0.00
2022-09-26T21:23:07.141Z,0.00
2022-09-26T21:24:07.107Z,0.00
2022-09-26T21:25:07.103Z,0.00
2022-09-26T21:26:07.085Z,0.00
2022-09-26T21:27:07.081Z,0.00
2022-09-26T21:28:07.053Z,0.00
2022-09-26T21:29:07.051Z,0.00
2022-09-26T21:30:07.040Z,0.00
2022-09-26T21:31:07.076Z,0.00
2022-09-26T21:32:07.022Z,0.00
2022-09-26T21:33:07.019Z,0.00
2022-09-26T21:34:07.008Z,0.00
2022-09-26T21:35:06.982Z,0.00
2022-09-26T21:36:06.982Z,0.00
2022-09-26T21:37:06.958Z,0.00
2022-09-26T21:38:06.959Z,0.00
2022-09-26T21:39:06.945Z,0.00
2022-09-26T21:40:06.929Z,0.00
2022-09-26T21:41:06.928Z,0.00
2022-09-26T21:42:06.907Z,0.00
2022-09-26T21:43:06.909Z,0.00
2022-09-26T21:44:06.883Z,0.00
2022-09-26T21:45:06.882Z,0.00
2022-09-26T21:46:06.938Z,0.00
2022-09-26T21:47:06.858Z,0.00
2022-09-26T21:48:06.854Z,0.00
2022-09-26T21:49:06.840Z,0.00
2022-09-26T21:50:06.828Z,0.00
2022-09-26T21:51:06.818Z,0.00
2022-09-26T21:52:06.814Z,0.00
2022-09-26T21:53:06.810Z,0.00
2022-09-26T21:54:06.809Z,0.00
2022-09-26T21:55:06.782Z,0.00
2022-09-26T21:56:07.854Z,0.00
2022-09-26T21:57:06.769Z,0.00
2022-09-26T21:58:06.748Z,0.00
2022-09-26T21:59:06.740Z,0.00
2022-09-26T22:00:06.754Z,0.00
2022-09-26T22:01:06.750Z,0.00
2022-09-26T22:02:06.718Z,0.00
2022-09-26T22:03:06.692Z,0.00
2022-09-26T22:04:06.687Z,0.00
2022-09-26T22:05:06.665Z,0.00
2022-09-26T22:06:07.482Z,0.00
2022-09-26T22:07:06.652Z,0.00
2022-09-26T22:08:06.637Z,0.00
2022-09-26T22:09:06.638Z,0.00
2022-09-26T22:10:06.608Z,0.00
2022-09-26T22:11:06.604Z,0.00
2022-09-26T22:12:06.617Z,0.00
2022-09-26T22:13:06.582Z,0.00
2022-09-26T22:14:06.567Z,0.00
2022-09-26T22:15:06.560Z,0.00
2022-09-26T22:16:06.550Z,0.00
2022-09-26T22:17:06.605Z,0.00
2022-09-26T22:18:06.529Z,0.00
2022-09-26T22:19:06.523Z,0.00
2022-09-26T22:20:06.499Z,0.00
2022-09-26T22:21:06.692Z,0.00
2022-09-26T22:22:06.482Z,0.00
2022-09-26T22:23:06.474Z,0.00
2022-09-26T22:24:06.470Z,0.00
2022-09-26T22:25:06.455Z,0.00
2022-09-26T22:26:06.436Z,0.00
2022-09-26T22:27:06.427Z,0.00
2022-09-26T22:28:06.420Z,0.00
2022-09-26T22:29:06.409Z,0.00
2022-09-26T22:30:06.400Z,0.00
2022-09-26T22:31:06.509Z,0.00
2022-09-26T22:32:06.378Z,0.00
2022-09-26T22:33:06.380Z,0.00
2022-09-26T22:34:06.365Z,0.00
2022-09-26T22:35:06.341Z,0.00
2022-09-26T22:36:06.338Z,0.00
2022-09-26T22:37:06.322Z,0.00
2022-09-26T22:38:06.311Z,0.00
2022-09-26T22:39:06.290Z,0.00
2022-09-26T22:40:06.292Z,0.00
2022-09-26T22:41:06.277Z,0.00
2022-09-26T22:42:06.273Z,0.00
2022-09-26T22:43:06.267Z,0.00
2022-09-26T22:44:06.240Z,0.00
2022-09-26T22:45:06.248Z,0.00
2022-09-26T22:46:06.252Z,0.00
2022-09-26T22:47:06.224Z,0.00
2022-09-26T22:48:06.221Z,0.00
2022-09-26T22:49:06.198Z,0.00
2022-09-26T22:50:06.173Z,0.00
2022-09-26T22:51:06.195Z,0.00
2022-09-26T22:52:06.337Z,0.00
2022-09-26T22:53:06.155Z,0.00
2022-09-26T22:54:06.143Z,0.00
2022-09-26T22:55:06.133Z,0.00
2022-09-26T22:56:06.131Z,0.00
2022-09-26T22:57:06.130Z,0.00
2022-09-26T22:58:06.101Z,0.00
2022-09-26T22:59:06.094Z,0.00
2022-09-26T23:00:06.068Z,0.00
2022-09-26T23:01:06.100Z,0.00
2022-09-26T23:02:06.114Z,0.00
2022-09-26T23:03:06.037Z,0.00
2022-09-26T23:04:06.033Z,0.00
2022-09-26T23:05:06.044Z,0.00
2022-09-26T23:06:06.025Z,0.00
2022-09-26T23:07:05.996Z,0.00
2022-09-26T23:08:05.997Z,0.00
2022-09-26T23:09:05.974Z,0.00
2022-09-26T23:10:05.970Z,0.00
2022-09-26T23:11:05.950Z,0.00
2022-09-26T23:12:05.943Z,0.00
2022-09-26T23:13:05.935Z,0.00
2022-09-26T23:14:05.925Z,0.00
2022-09-26T23:15:05.920Z,0.00
2022-09-26T23:16:05.906Z,0.00
2022-09-26T23:17:05.959Z,0.00
2022-09-26T23:18:05.894Z,0.00
2022-09-26T23:19:05.880Z,0.00
2022-09-26T23:20:05.860Z,0.00
2022-09-26T23:21:05.842Z,0.00
2022-09-26T23:22:05.853Z,0.00
2022-09-26T23:23:06.031Z,0.00
2022-09-26T23:24:05.829Z,0.00
2022-09-26T23:25:05.802Z,0.00
2022-09-26T23:26:05.802Z,0.00
2022-09-26T23:27:05.788Z,0.00
2022-09-26T23:28:05.793Z,0.00
2022-09-26T23:29:05.762Z,0.00
2022-09-26T23:30:05.762Z,0.00
2022-09-26T23:31:05.776Z,0.00
2022-09-26T23:32:05.740Z,0.00
2022-09-26T23:33:05.731Z,0.00
2022-09-26T23:34:05.712Z,0.00
2022-09-26T23:35:05.692Z,0.00
2022-09-26T23:36:05.682Z,0.00
2022-09-26T23:37:05.669Z,0.00
2022-09-26T23:38:05.684Z,0.00
2022-09-26T23:39:05.672Z,0.00
2022-09-26T23:40:05.650Z,0.00
2022-09-26T23:41:05.636Z,0.00
2022-09-26T23:42:05.630Z,0.00
2022-09-26T23:43:05.607Z,0.00
2022-09-26T23:44:05.620Z,0.00
2022-09-26T23:45:05.603Z,0.00
2022-09-26T23:46:05.643Z,0.00
2022-09-26T23:47:05.580Z,0.00
2022-09-26T23:48:05.566Z,0.00
2022-09-26T23:49:05.544Z,0.00
2022-09-26T23:50:05.545Z,0.00
2022-09-26T23:51:05.532Z,0.00
2022-09-26T23:52:05.522Z,0.00
2022-09-26T23:53:06.783Z,0.00
2022-09-26T23:54:05.574Z,0.00
2022-09-26T23:55:05.489Z,0.00
2022-09-26T23:56:05.481Z,0.00
2022-09-26T23:57:05.476Z,0.00
2022-09-26T23:58:05.469Z,0.00
2022-09-26T23:59:05.454Z,0.00
